Eleven Point River (Missouri), Ravenden Springs (07072000)

StateMissouriLatestLow (880 cfs)
RiverEleven Point RiverRatingObservedEstimated
Updated2020-09-23 0:45 (1 hour ago)Flood - The river is flooding. Obstacles can be treacherous or deadly. The river should be avoided at this stage for casual trips and definitely for the inexperienced. Trips should be attempted only with protective gear and equipment.Flood(none)3035
Discharge880 cfs (median: 543 cfs)High - The river is high and potentially dangerous, especially for the young and / or inexperienced. Normal stream obstacles are sometimes difficult to navigate. Extended distances can be attempted, but canoe travel may not be advisable.High(none)1402
Height3.49 feetGood - Conditions are ideal for a canoe or kayak. Boats typically will drag on fewer than one-quarter of riffles, if at all, and portages are unnecessary or rare. Normal float lengths can be attempted without a problem.Good(none)1027
TrendFalling (falling over 24 hours)Low - River is low but can still be floated. Some riffles are okay but most come with significant dragging and might need a portage. Float lengths should be reduced to accommodate low flow, dragging, and portages.Low(none)777
USGSExternal icon USGS Site (External icon Google Maps)Poor - River is too low to float comfortably. Most or all riffles will drag or must be portaged and some obstacles (such as slick shelf rock) cause undue problems. Avoid the river at this stage for casual paddling trips.Poor(none)414

Trending Data

Plot Image

Trips for Eleven Point River (Missouri), Ravenden Springs (07072000)

DateStartEndDistanceConditionDischargeHeightFishingDetails

A total of 0 rows are displayed.

Condition Descriptions

Fishing Conditions

Fish Species

Notes

Classic Trip List

The classic River Trips application is still available for use. It is updated with the new system using a data retrofit. It is no longer maintained. The original River Trips application is no longer updated (as of 1 Dec 2016) but can be checked for errors or for the condition of the data before it was converted to the new system.

Gauge Data Table

ObservationHeightDischargeMaximum
Discharge
Minimum
Discharge
Mean
Discharge
P05P10P20P25P50
(Median)
P75P80P90P95
2020-09-23 00:45 3.49 880 23400 (2006) 277 (1941) 904 303 351 425 450 543 761 797 901 1280
2020-09-22 23:45 3.50 887 2270 (1965) 279 (1956) 618 305 350 425 445 522 742 797 890 1010
2020-09-22 22:45 3.49 880 2270 (1965) 279 (1956) 618 305 350 425 445 522 742 797 890 1010
2020-09-22 21:45 3.49 880 2270 (1965) 279 (1956) 618 305 350 425 445 522 742 797 890 1010
2020-09-22 20:45 3.50 887 2270 (1965) 279 (1956) 618 305 350 425 445 522 742 797 890 1010
2020-09-22 19:45 3.50 887 2270 (1965) 279 (1956) 618 305 350 425 445 522 742 797 890 1010
2020-09-22 18:45 3.49 880 2270 (1965) 279 (1956) 618 305 350 425 445 522 742 797 890 1010
2020-09-22 17:45 3.49 880 2270 (1965) 279 (1956) 618 305 350 425 445 522 742 797 890 1010
2020-09-22 16:45 3.50 887 2270 (1965) 279 (1956) 618 305 350 425 445 522 742 797 890 1010
2020-09-22 15:45 3.49 880 2270 (1965) 279 (1956) 618 305 350 425 445 522 742 797 890 1010
2020-09-22 14:45 3.50 887 2270 (1965) 279 (1956) 618 305 350 425 445 522 742 797 890 1010
2020-09-22 13:45 3.47 867 2270 (1965) 279 (1956) 618 305 350 425 445 522 742 797 890 1010
2020-09-22 12:45 3.50 887 2270 (1965) 279 (1956) 618 305 350 425 445 522 742 797 890 1010
2020-09-22 11:45 3.50 887 2270 (1965) 279 (1956) 618 305 350 425 445 522 742 797 890 1010
2020-09-22 10:45 3.47 867 2270 (1965) 279 (1956) 618 305 350 425 445 522 742 797 890 1010
2020-09-22 09:45 3.50 887 2270 (1965) 279 (1956) 618 305 350 425 445 522 742 797 890 1010
2020-09-22 08:45 3.49 880 2270 (1965) 279 (1956) 618 305 350 425 445 522 742 797 890 1010
2020-09-22 07:45 3.50 887 2270 (1965) 279 (1956) 618 305 350 425 445 522 742 797 890 1010
2020-09-22 06:45 3.50 887 2270 (1965) 279 (1956) 618 305 350 425 445 522 742 797 890 1010
2020-09-22 05:45 3.50 887 2270 (1965) 279 (1956) 618 305 350 425 445 522 742 797 890 1010
2020-09-22 04:45 3.49 880 2270 (1965) 279 (1956) 618 305 350 425 445 522 742 797 890 1010
2020-09-22 03:45 3.49 880 2270 (1965) 279 (1956) 618 305 350 425 445 522 742 797 890 1010
2020-09-22 02:45 3.50 887 2270 (1965) 279 (1956) 618 305 350 425 445 522 742 797 890 1010
2020-09-22 01:45 3.50 887 2270 (1965) 279 (1956) 618 305 350 425 445 522 742 797 890 1010
2020-09-22 00:45 3.50 887 2270 (1965) 279 (1956) 618 305 350 425 445 522 742 797 890 1010
2020-09-21 23:45 3.50 887 2750 (1975) 279 (1956) 605 306 351 430 445 525 725 778 839 983
2020-09-21 22:45 3.50 887 2750 (1975) 279 (1956) 605 306 351 430 445 525 725 778 839 983
2020-09-21 21:45 3.50 887 2750 (1975) 279 (1956) 605 306 351 430 445 525 725 778 839 983
2020-09-21 20:45 3.50 887 2750 (1975) 279 (1956) 605 306 351 430 445 525 725 778 839 983
2020-09-21 19:45 3.50 887 2750 (1975) 279 (1956) 605 306 351 430 445 525 725 778 839 983
2020-09-21 18:45 3.50 887 2750 (1975) 279 (1956) 605 306 351 430 445 525 725 778 839 983
2020-09-21 17:45 3.51 893 2750 (1975) 279 (1956) 605 306 351 430 445 525 725 778 839 983
2020-09-21 16:45 3.52 900 2750 (1975) 279 (1956) 605 306 351 430 445 525 725 778 839 983
2020-09-21 15:45 3.51 893 2750 (1975) 279 (1956) 605 306 351 430 445 525 725 778 839 983
2020-09-21 14:45 3.52 900 2750 (1975) 279 (1956) 605 306 351 430 445 525 725 778 839 983
2020-09-21 13:45 3.49 880 2750 (1975) 279 (1956) 605 306 351 430 445 525 725 778 839 983
2020-09-21 12:45 3.50 887 2750 (1975) 279 (1956) 605 306 351 430 445 525 725 778 839 983
2020-09-21 11:45 3.50 887 2750 (1975) 279 (1956) 605 306 351 430 445 525 725 778 839 983
2020-09-21 10:45 3.50 887 2750 (1975) 279 (1956) 605 306 351 430 445 525 725 778 839 983
2020-09-21 09:45 3.46 861 2750 (1975) 279 (1956) 605 306 351 430 445 525 725 778 839 983
2020-09-21 08:45 3.51 893 2750 (1975) 279 (1956) 605 306 351 430 445 525 725 778 839 983
2020-09-21 07:45 3.50 887 2750 (1975) 279 (1956) 605 306 351 430 445 525 725 778 839 983
2020-09-21 06:45 3.50 887 2750 (1975) 279 (1956) 605 306 351 430 445 525 725 778 839 983
2020-09-21 05:45 3.50 887 2750 (1975) 279 (1956) 605 306 351 430 445 525 725 778 839 983
2020-09-21 04:45 3.50 887 2750 (1975) 279 (1956) 605 306 351 430 445 525 725 778 839 983
2020-09-21 03:45 3.50 887 2750 (1975) 279 (1956) 605 306 351 430 445 525 725 778 839 983
2020-09-21 02:45 3.50 887 2750 (1975) 279 (1956) 605 306 351 430 445 525 725 778 839 983
2020-09-21 01:45 3.51 893 2750 (1975) 279 (1956) 605 306 351 430 445 525 725 778 839 983
2020-09-21 00:45 3.51 893 2750 (1975) 279 (1956) 605 306 351 430 445 525 725 778 839 983
2020-09-20 23:45 3.51 893 3260 (1975) 287 (1941) 615 300 360 434 440 528 705 779 890 1010
2020-09-20 22:45 3.51 893 3260 (1975) 287 (1941) 615 300 360 434 440 528 705 779 890 1010
2020-09-20 21:45 3.51 893 3260 (1975) 287 (1941) 615 300 360 434 440 528 705 779 890 1010
2020-09-20 20:45 3.51 893 3260 (1975) 287 (1941) 615 300 360 434 440 528 705 779 890 1010
2020-09-20 19:45 3.51 893 3260 (1975) 287 (1941) 615 300 360 434 440 528 705 779 890 1010
2020-09-20 18:45 3.51 893 3260 (1975) 287 (1941) 615 300 360 434 440 528 705 779 890 1010
2020-09-20 17:45 3.51 893 3260 (1975) 287 (1941) 615 300 360 434 440 528 705 779 890 1010
2020-09-20 16:45 3.53 906 3260 (1975) 287 (1941) 615 300 360 434 440 528 705 779 890 1010
2020-09-20 15:45 3.52 900 3260 (1975) 287 (1941) 615 300 360 434 440 528 705 779 890 1010
2020-09-20 14:45 3.52 900 3260 (1975) 287 (1941) 615 300 360 434 440 528 705 779 890 1010
2020-09-20 13:45 3.52 900 3260 (1975) 287 (1941) 615 300 360 434 440 528 705 779 890 1010
2020-09-20 12:45 3.51 893 3260 (1975) 287 (1941) 615 300 360 434 440 528 705 779 890 1010
2020-09-20 11:45 3.51 893 3260 (1975) 287 (1941) 615 300 360 434 440 528 705 779 890 1010
2020-09-20 10:45 3.51 893 3260 (1975) 287 (1941) 615 300 360 434 440 528 705 779 890 1010
2020-09-20 09:45 3.51 893 3260 (1975) 287 (1941) 615 300 360 434 440 528 705 779 890 1010
2020-09-20 08:45 3.51 893 3260 (1975) 287 (1941) 615 300 360 434 440 528 705 779 890 1010
2020-09-20 07:45 3.51 893 3260 (1975) 287 (1941) 615 300 360 434 440 528 705 779 890 1010
2020-09-20 06:45 3.51 893 3260 (1975) 287 (1941) 615 300 360 434 440 528 705 779 890 1010
2020-09-20 05:45 3.51 893 3260 (1975) 287 (1941) 615 300 360 434 440 528 705 779 890 1010
2020-09-20 04:45 3.50 887 3260 (1975) 287 (1941) 615 300 360 434 440 528 705 779 890 1010
2020-09-20 03:45 3.50 887 3260 (1975) 287 (1941) 615 300 360 434 440 528 705 779 890 1010
2020-09-20 02:45 3.50 887 3260 (1975) 287 (1941) 615 300 360 434 440 528 705 779 890 1010
2020-09-20 01:45 3.50 887 3260 (1975) 287 (1941) 615 300 360 434 440 528 705 779 890 1010
2020-09-20 00:45 3.50 887 3260 (1975) 287 (1941) 615 300 360 434 440 528 705 779 890 1010
2020-09-19 23:45 3.50 887 2050 (1975) 283 (1956) 609 304 360 436 440 534 698 786 932 1010
2020-09-19 22:45 3.50 887 2050 (1975) 283 (1956) 609 304 360 436 440 534 698 786 932 1010
2020-09-19 21:45 3.50 887 2050 (1975) 283 (1956) 609 304 360 436 440 534 698 786 932 1010
2020-09-19 20:45 3.50 887 2050 (1975) 283 (1956) 609 304 360 436 440 534 698 786 932 1010
2020-09-19 19:45 3.51 893 2050 (1975) 283 (1956) 609 304 360 436 440 534 698 786 932 1010
2020-09-19 18:45 3.51 893 2050 (1975) 283 (1956) 609 304 360 436 440 534 698 786 932 1010
2020-09-19 17:45 3.52 900 2050 (1975) 283 (1956) 609 304 360 436 440 534 698 786 932 1010
2020-09-19 16:45 3.51 893 2050 (1975) 283 (1956) 609 304 360 436 440 534 698 786 932 1010
2020-09-19 15:45 3.50 887 2050 (1975) 283 (1956) 609 304 360 436 440 534 698 786 932 1010
2020-09-19 14:45 3.48 874 2050 (1975) 283 (1956) 609 304 360 436 440 534 698 786 932 1010
2020-09-19 13:45 3.51 893 2050 (1975) 283 (1956) 609 304 360 436 440 534 698 786 932 1010
2020-09-19 12:45 3.51 893 2050 (1975) 283 (1956) 609 304 360 436 440 534 698 786 932 1010
2020-09-19 11:45 3.51 893 2050 (1975) 283 (1956) 609 304 360 436 440 534 698 786 932 1010
2020-09-19 10:45 3.51 893 2050 (1975) 283 (1956) 609 304 360 436 440 534 698 786 932 1010
2020-09-19 09:45 3.51 893 2050 (1975) 283 (1956) 609 304 360 436 440 534 698 786 932 1010
2020-09-19 08:45 3.51 893 2050 (1975) 283 (1956) 609 304 360 436 440 534 698 786 932 1010
2020-09-19 07:45 3.49 880 2050 (1975) 283 (1956) 609 304 360 436 440 534 698 786 932 1010
2020-09-19 06:45 3.51 893 2050 (1975) 283 (1956) 609 304 360 436 440 534 698 786 932 1010
2020-09-19 05:45 3.51 893 2050 (1975) 283 (1956) 609 304 360 436 440 534 698 786 932 1010
2020-09-19 04:45 3.51 893 2050 (1975) 283 (1956) 609 304 360 436 440 534 698 786 932 1010
2020-09-19 03:45 3.51 893 2050 (1975) 283 (1956) 609 304 360 436 440 534 698 786 932 1010
2020-09-19 02:45 3.51 893 2050 (1975) 283 (1956) 609 304 360 436 440 534 698 786 932 1010
2020-09-19 01:45 3.52 900 2050 (1975) 283 (1956) 609 304 360 436 440 534 698 786 932 1010
2020-09-19 00:45 3.52 900 2050 (1975) 283 (1956) 609 304 360 436 440 534 698 786 932 1010
2020-09-18 23:45 3.51 893 2510 (1975) 279 (1956) 619 304 365 440 449 537 727 793 921 952
2020-09-18 22:45 3.52 900 2510 (1975) 279 (1956) 619 304 365 440 449 537 727 793 921 952
2020-09-18 21:45 3.52 900 2510 (1975) 279 (1956) 619 304 365 440 449 537 727 793 921 952
2020-09-18 20:45 3.52 900 2510 (1975) 279 (1956) 619 304 365 440 449 537 727 793 921 952
2020-09-18 19:45 3.52 900 2510 (1975) 279 (1956) 619 304 365 440 449 537 727 793 921 952
2020-09-18 18:45 3.52 900 2510 (1975) 279 (1956) 619 304 365 440 449 537 727 793 921 952
2020-09-18 17:45 3.53 906 2510 (1975) 279 (1956) 619 304 365 440 449 537 727 793 921 952
2020-09-18 16:45 3.53 906 2510 (1975) 279 (1956) 619 304 365 440 449 537 727 793 921 952
2020-09-18 15:45 3.53 906 2510 (1975) 279 (1956) 619 304 365 440 449 537 727 793 921 952
2020-09-18 14:45 3.53 906 2510 (1975) 279 (1956) 619 304 365 440 449 537 727 793 921 952
2020-09-18 13:45 3.53 906 2510 (1975) 279 (1956) 619 304 365 440 449 537 727 793 921 952
2020-09-18 12:45 3.53 906 2510 (1975) 279 (1956) 619 304 365 440 449 537 727 793 921 952
2020-09-18 11:45 3.53 906 2510 (1975) 279 (1956) 619 304 365 440 449 537 727 793 921 952
2020-09-18 10:45 3.53 906 2510 (1975) 279 (1956) 619 304 365 440 449 537 727 793 921 952
2020-09-18 09:45 3.53 906 2510 (1975) 279 (1956) 619 304 365 440 449 537 727 793 921 952
2020-09-18 08:45 3.53 906 2510 (1975) 279 (1956) 619 304 365 440 449 537 727 793 921 952
2020-09-18 07:45 3.53 906 2510 (1975) 279 (1956) 619 304 365 440 449 537 727 793 921 952
2020-09-18 06:45 3.53 906 2510 (1975) 279 (1956) 619 304 365 440 449 537 727 793 921 952
2020-09-18 05:45 3.53 906 2510 (1975) 279 (1956) 619 304 365 440 449 537 727 793 921 952
2020-09-18 04:45 3.53 906 2510 (1975) 279 (1956) 619 304 365 440 449 537 727 793 921 952
2020-09-18 03:45 3.53 906 2510 (1975) 279 (1956) 619 304 365 440 449 537 727 793 921 952
2020-09-18 02:45 3.53 906 2510 (1975) 279 (1956) 619 304 365 440 449 537 727 793 921 952
2020-09-18 01:45 3.53 906 2510 (1975) 279 (1956) 619 304 365 440 449 537 727 793 921 952
2020-09-18 00:45 3.54 913 2510 (1975) 279 (1956) 619 304 365 440 449 537 727 793 921 952
2020-09-17 23:45 3.54 913 1520 (1975) 279 (1956) 608 308 359 430 458 537 723 801 946 1050
2020-09-17 22:45 3.54 913 1520 (1975) 279 (1956) 608 308 359 430 458 537 723 801 946 1050
2020-09-17 21:45 3.54 913 1520 (1975) 279 (1956) 608 308 359 430 458 537 723 801 946 1050
2020-09-17 20:45 3.54 913 1520 (1975) 279 (1956) 608 308 359 430 458 537 723 801 946 1050
2020-09-17 19:45 3.54 913 1520 (1975) 279 (1956) 608 308 359 430 458 537 723 801 946 1050
2020-09-17 18:45 3.54 913 1520 (1975) 279 (1956) 608 308 359 430 458 537 723 801 946 1050
2020-09-17 17:45 3.55 919 1520 (1975) 279 (1956) 608 308 359 430 458 537 723 801 946 1050
2020-09-17 16:45 3.55 919 1520 (1975) 279 (1956) 608 308 359 430 458 537 723 801 946 1050
2020-09-17 15:45 3.55 919 1520 (1975) 279 (1956) 608 308 359 430 458 537 723 801 946 1050
2020-09-17 14:45 3.55 919 1520 (1975) 279 (1956) 608 308 359 430 458 537 723 801 946 1050
2020-09-17 13:45 3.55 919 1520 (1975) 279 (1956) 608 308 359 430 458 537 723 801 946 1050
2020-09-17 12:45 3.55 919 1520 (1975) 279 (1956) 608 308 359 430 458 537 723 801 946 1050
2020-09-17 11:45 3.54 913 1520 (1975) 279 (1956) 608 308 359 430 458 537 723 801 946 1050
2020-09-17 10:45 3.54 913 1520 (1975) 279 (1956) 608 308 359 430 458 537 723 801 946 1050
2020-09-17 09:45 3.54 913 1520 (1975) 279 (1956) 608 308 359 430 458 537 723 801 946 1050
2020-09-17 08:45 3.54 913 1520 (1975) 279 (1956) 608 308 359 430 458 537 723 801 946 1050
2020-09-17 07:45 3.55 919 1520 (1975) 279 (1956) 608 308 359 430 458 537 723 801 946 1050
2020-09-17 06:45 3.54 913 1520 (1975) 279 (1956) 608 308 359 430 458 537 723 801 946 1050
2020-09-17 05:45 3.55 919 1520 (1975) 279 (1956) 608 308 359 430 458 537 723 801 946 1050
2020-09-17 04:45 3.54 913 1520 (1975) 279 (1956) 608 308 359 430 458 537 723 801 946 1050
2020-09-17 03:45 3.54 913 1520 (1975) 279 (1956) 608 308 359 430 458 537 723 801 946 1050
2020-09-17 02:45 3.54 913 1520 (1975) 279 (1956) 608 308 359 430 458 537 723 801 946 1050
2020-09-17 01:45 3.54 913 1520 (1975) 279 (1956) 608 308 359 430 458 537 723 801 946 1050
2020-09-17 00:45 3.55 919 1520 (1975) 279 (1956) 608 308 359 430 458 537 723 801 946 1050
2020-09-16 23:45 3.55 919 2810 (2009) 239 (1936) 621 306 359 440 463 549 702 779 952 1010
2020-09-16 22:45 3.55 919 2810 (2009) 239 (1936) 621 306 359 440 463 549 702 779 952 1010
2020-09-16 21:45 3.55 919 2810 (2009) 239 (1936) 621 306 359 440 463 549 702 779 952 1010
2020-09-16 20:45 3.55 919 2810 (2009) 239 (1936) 621 306 359 440 463 549 702 779 952 1010
2020-09-16 19:45 3.55 919 2810 (2009) 239 (1936) 621 306 359 440 463 549 702 779 952 1010
2020-09-16 18:45 3.55 919 2810 (2009) 239 (1936) 621 306 359 440 463 549 702 779 952 1010
2020-09-16 17:45 3.55 919 2810 (2009) 239 (1936) 621 306 359 440 463 549 702 779 952 1010
2020-09-16 16:45 3.55 919 2810 (2009) 239 (1936) 621 306 359 440 463 549 702 779 952 1010
2020-09-16 15:45 3.55 919 2810 (2009) 239 (1936) 621 306 359 440 463 549 702 779 952 1010
2020-09-16 14:45 3.55 919 2810 (2009) 239 (1936) 621 306 359 440 463 549 702 779 952 1010
2020-09-16 13:45 3.55 919 2810 (2009) 239 (1936) 621 306 359 440 463 549 702 779 952 1010
2020-09-16 12:45 3.55 919 2810 (2009) 239 (1936) 621 306 359 440 463 549 702 779 952 1010
2020-09-16 11:45 3.54 913 2810 (2009) 239 (1936) 621 306 359 440 463 549 702 779 952 1010
2020-09-16 10:45 3.55 919 2810 (2009) 239 (1936) 621 306 359 440 463 549 702 779 952 1010
2020-09-16 09:45 3.55 919 2810 (2009) 239 (1936) 621 306 359 440 463 549 702 779 952 1010
2020-09-16 08:45 3.55 919 2810 (2009) 239 (1936) 621 306 359 440 463 549 702 779 952 1010
2020-09-16 07:45 3.55 919 2810 (2009) 239 (1936) 621 306 359 440 463 549 702 779 952 1010
2020-09-16 06:45 3.55 919 2810 (2009) 239 (1936) 621 306 359 440 463 549 702 779 952 1010
2020-09-16 05:45 3.55 919 2810 (2009) 239 (1936) 621 306 359 440 463 549 702 779 952 1010
2020-09-16 04:45 3.55 919 2810 (2009) 239 (1936) 621 306 359 440 463 549 702 779 952 1010
2020-09-16 03:45 3.55 919 2810 (2009) 239 (1936) 621 306 359 440 463 549 702 779 952 1010
2020-09-16 02:45 3.55 919 2810 (2009) 239 (1936) 621 306 359 440 463 549 702 779 952 1010
2020-09-16 01:45 3.56 926 2810 (2009) 239 (1936) 621 306 359 440 463 549 702 779 952 1010
2020-09-16 00:45 3.55 919 2810 (2009) 239 (1936) 621 306 359 440 463 549 702 779 952 1010

A total of 169 rows are displayed for years 1930 through 2016.